Time;durP1;ratioP1;P1;durP2;ratioP2;P2;SDS_P1;SDS_P2;PMS_P1;PMS_P2;Temp;Humidity;BMP_temperature;BMP_pressure;BME280_temperature;BME280_humidity;BME280_pressure;Samples;Min_cycle;Max_cycle;Signal;HPM_P1;HPM_P2
2021/09/14 00:01:01;;;;;;;8.93;5.25;;;17.20;99.90;;;;;;5056524;28;20039;-83
2021/09/14 00:03:27;;;;;;;8.23;5.07;;;17.20;99.90;;;;;;5056885;28;20028;-83
2021/09/14 00:05:52;;;;;;;8.88;5.53;;;17.10;99.90;;;;;;5075231;28;20029;-83
2021/09/14 00:08:18;;;;;;;7.60;4.88;;;17.10;99.90;;;;;;5056893;28;20102;-83
2021/09/14 00:10:46;;;;;;;8.82;4.90;;;17.10;99.90;;;;;;5056290;28;20608;-83
2021/09/14 00:13:13;;;;;;;5.93;4.72;;;17.10;99.90;;;;;;5056438;28;20021;-84
2021/09/14 00:15:38;;;;;;;9.07;5.32;;;17.10;99.90;;;;;;5056642;28;20102;-83
2021/09/14 00:18:04;;;;;;;6.35;5.00;;;17.10;99.90;;;;;;5056258;28;20025;-83
2021/09/14 00:20:30;;;;;;;6.72;4.80;;;17.10;99.90;;;;;;5056507;28;20383;-83
2021/09/14 00:22:59;;;;;;;8.65;4.97;;;17.00;99.90;;;;;;5077424;28;20024;-84
2021/09/14 00:25:25;;;;;;;6.97;5.30;;;17.00;99.90;;;;;;5061762;28;20020;-83
2021/09/14 00:27:51;;;;;;;8.90;5.38;;;16.90;99.90;;;;;;5080873;28;20053;-83
2021/09/14 00:30:16;;;;;;;9.10;5.57;;;16.90;99.90;;;;;;5061365;28;20020;-84
2021/09/14 00:32:42;;;;;;;8.15;5.50;;;16.90;99.90;;;;;;5078011;28;20021;-84
2021/09/14 00:35:08;;;;;;;6.75;4.85;;;16.80;99.90;;;;;;5078347;28;20096;-84
2021/09/14 00:37:34;;;;;;;9.35;5.30;;;16.80;99.90;;;;;;5060687;28;20025;-84
2021/09/14 00:39:59;;;;;;;7.80;5.28;;;16.80;99.90;;;;;;5060254;28;20020;-83
2021/09/14 00:42:25;;;;;;;10.50;5.22;;;16.80;99.90;;;;;;5060470;28;20048;-84
2021/09/14 00:44:51;;;;;;;7.70;5.50;;;16.80;99.90;;;;;;5060556;28;20036;-83
2021/09/14 00:47:17;;;;;;;7.32;5.50;;;16.70;99.90;;;;;;5078973;28;20025;-84
2021/09/14 00:49:42;;;;;;;8.10;5.85;;;16.70;99.90;;;;;;5060856;28;20477;-83
2021/09/14 00:52:09;;;;;;;12.30;6.03;;;16.70;99.90;;;;;;5061450;28;20030;-83
2021/09/14 00:54:38;;;;;;;9.02;5.50;;;16.60;99.90;;;;;;5061343;28;20028;-86
2021/09/14 00:57:05;;;;;;;8.52;5.97;;;16.60;99.90;;;;;;5062097;28;20059;-86
2021/09/14 00:59:31;;;;;;;8.02;5.90;;;16.60;99.90;;;;;;5060110;28;20032;-87
2021/09/14 01:01:57;;;;;;;7.43;5.47;;;16.50;99.90;;;;;;5056507;28;20032;-86
2021/09/14 01:04:23;;;;;;;9.70;5.70;;;16.50;99.90;;;;;;5057056;28;20078;-86
2021/09/14 01:06:49;;;;;;;9.98;5.55;;;16.50;99.90;;;;;;5077082;28;20029;-86
2021/09/14 01:09:15;;;;;;;8.63;5.70;;;16.50;99.90;;;;;;5076109;28;20035;-86
2021/09/14 01:11:42;;;;;;;9.80;5.60;;;16.40;99.90;;;;;;5076743;28;20457;-86
2021/09/14 01:14:09;;;;;;;7.43;6.00;;;16.40;99.90;;;;;;5076166;28;20095;-86
2021/09/14 01:16:38;;;;;;;7.35;5.68;;;16.30;99.90;;;;;;5058751;28;20032;-86
2021/09/14 01:19:05;;;;;;;10.32;6.03;;;16.30;99.90;;;;;;5075913;28;20103;-86
2021/09/14 01:21:32;;;;;;;8.43;6.10;;;16.20;99.90;;;;;;5077137;28;20028;-86
2021/09/14 01:23:59;;;;;;;8.95;6.57;;;16.20;99.90;;;;;;5056848;28;20051;-86
2021/09/14 01:26:26;;;;;;;8.43;5.82;;;16.10;99.90;;;;;;5056838;28;20067;-86
2021/09/14 01:28:52;;;;;;;9.40;6.47;;;16.10;99.90;;;;;;5074337;28;20071;-86
2021/09/14 01:31:19;;;;;;;8.57;6.10;;;16.10;99.90;;;;;;5056357;28;20029;-86
2021/09/14 01:33:48;;;;;;;7.90;5.57;;;16.00;99.90;;;;;;5055910;28;20021;-86
2021/09/14 01:36:14;;;;;;;8.00;5.38;;;16.00;99.90;;;;;;5055891;28;20380;-86
2021/09/14 01:38:40;;;;;;;10.10;6.63;;;16.00;99.90;;;;;;5057503;28;20020;-85
2021/09/14 01:41:06;;;;;;;7.60;5.95;;;15.90;99.90;;;;;;5075459;28;20025;-85
2021/09/14 01:43:31;;;;;;;8.52;5.97;;;15.90;99.90;;;;;;5057495;28;20060;-85
2021/09/14 01:45:57;;;;;;;10.52;6.70;;;15.90;99.90;;;;;;5057458;28;20021;-85
2021/09/14 01:48:23;;;;;;;9.60;6.47;;;15.80;99.90;;;;;;5057478;28;20427;-85
2021/09/14 01:50:49;;;;;;;9.40;5.85;;;15.80;99.90;;;;;;5075982;28;20096;-85
2021/09/14 01:53:14;;;;;;;7.28;5.72;;;15.80;99.90;;;;;;5057551;28;20358;-85
2021/09/14 01:55:40;;;;;;;9.48;6.30;;;15.90;99.90;;;;;;5057488;28;20052;-85
2021/09/14 01:58:06;;;;;;;8.23;6.20;;;15.80;99.90;;;;;;5057326;28;20024;-85
2021/09/14 02:00:35;;;;;;;9.73;6.55;;;15.70;99.90;;;;;;5056961;28;20032;-85
2021/09/14 02:03:25;;;;;;;10.77;7.10;;;15.70;99.90;;;;;;5075344;28;20020;-85
2021/09/14 02:59:36;;;;;;;10.63;8.00;;;15.50;99.90;;;;;;5074611;28;20406;-85
2021/09/14 03:02:02;;;;;;;11.98;8.02;;;15.50;99.90;;;;;;5074726;28;20050;-85
2021/09/14 03:04:28;;;;;;;10.55;7.85;;;15.50;99.90;;;;;;5057936;28;20028;-86
2021/09/14 03:06:54;;;;;;;11.52;7.25;;;15.40;99.90;;;;;;5057802;28;20025;-85
2021/09/14 03:09:20;;;;;;;14.98;8.05;;;15.50;99.90;;;;;;5075763;28;20035;-85
2021/09/14 03:11:45;;;;;;;9.82;7.60;;;15.40;99.90;;;;;;5076446;28;20099;-85
2021/09/14 03:14:12;;;;;;;10.30;7.78;;;15.40;99.90;;;;;;5059515;28;20048;-85
2021/09/14 03:16:38;;;;;;;11.73;8.10;;;15.40;99.90;;;;;;5078816;28;20021;-85
2021/09/14 03:19:04;;;;;;;11.95;8.30;;;15.40;99.90;;;;;;5075790;28;20024;-85
2021/09/14 03:21:30;;;;;;;10.75;8.30;;;15.40;99.90;;;;;;5057358;28;20024;-85
2021/09/14 03:23:56;;;;;;;11.55;8.43;;;15.40;99.90;;;;;;5058485;28;20396;-85
2021/09/14 03:26:21;;;;;;;9.38;7.68;;;15.40;99.90;;;;;;5077628;28;20082;-85
2021/09/14 03:28:47;;;;;;;15.25;9.02;;;15.30;99.90;;;;;;5076914;28;20024;-85
2021/09/14 03:31:16;;;;;;;13.43;9.35;;;15.30;99.90;;;;;;5058880;28;20025;-85
2021/09/14 03:33:43;;;;;;;11.77;8.38;;;15.30;99.90;;;;;;5058750;28;20032;-85
2021/09/14 03:36:08;;;;;;;14.23;8.80;;;15.30;99.90;;;;;;5058695;28;20066;-86
2021/09/14 03:38:34;;;;;;;13.60;8.90;;;15.20;99.90;;;;;;5058839;28;20028;-85
2021/09/14 03:41:00;;;;;;;13.27;9.07;;;15.20;99.90;;;;;;5076013;28;20029;-85
2021/09/14 03:43:25;;;;;;;10.73;8.55;;;15.20;99.90;;;;;;5058544;28;20029;-85
2021/09/14 03:45:51;;;;;;;11.88;8.57;;;15.20;99.90;;;;;;5059649;28;20433;-85
2021/09/14 03:48:17;;;;;;;13.93;8.60;;;15.20;99.90;;;;;;5077729;28;20032;-86
2021/09/14 03:50:43;;;;;;;15.30;8.63;;;15.20;99.90;;;;;;5059519;28;20067;-85
2021/09/14 03:53:09;;;;;;;12.32;8.65;;;15.20;99.90;;;;;;5078479;28;20024;-85
2021/09/14 03:55:35;;;;;;;12.02;8.25;;;15.20;99.90;;;;;;5060507;28;20097;-85
2021/09/14 03:58:00;;;;;;;13.90;8.88;;;15.20;99.90;;;;;;5062187;28;20052;-85
2021/09/14 04:00:27;;;;;;;14.35;8.73;;;15.10;99.90;;;;;;5064083;28;20020;-85
2021/09/14 04:02:57;;;;;;;14.07;8.90;;;15.00;99.90;;;;;;5063642;28;20020;-85
2021/09/14 04:05:45;;;;;;;12.85;9.02;;;15.00;99.90;;;;;;5059632;28;20016;-85
2021/09/14 04:10:43;;;;;;;10.95;8.68;;;15.00;99.90;;;;;;5077939;28;20116;-85
2021/09/14 04:13:09;;;;;;;10.13;8.73;;;15.00;99.90;;;;;;5059654;28;20107;-85
2021/09/14 04:15:36;;;;;;;13.20;9.65;;;14.90;99.90;;;;;;5059843;28;20058;-85
2021/09/14 04:18:04;;;;;;;11.55;8.60;;;14.90;99.90;;;;;;5060432;28;20020;-85
2021/09/14 04:20:31;;;;;;;11.57;8.80;;;14.90;99.90;;;;;;5059224;28;20461;-85
2021/09/14 04:22:57;;;;;;;13.02;8.65;;;14.90;99.90;;;;;;5059810;28;20029;-85
2021/09/14 04:25:23;;;;;;;12.70;9.57;;;15.00;99.90;;;;;;5059586;28;20041;-85
2021/09/14 04:27:49;;;;;;;16.33;9.75;;;15.10;99.90;;;;;;5059494;28;20083;-85
2021/09/14 04:30:15;;;;;;;13.32;9.15;;;15.10;99.90;;;;;;5058432;28;20021;-85
2021/09/14 04:32:41;;;;;;;14.98;9.52;;;15.10;99.90;;;;;;5059649;28;20032;-85
2021/09/14 04:35:07;;;;;;;12.48;9.05;;;15.20;99.90;;;;;;5059284;28;20032;-85
2021/09/14 04:37:33;;;;;;;10.95;9.20;;;15.20;99.90;;;;;;5058331;28;20033;-85
2021/09/14 04:39:59;;;;;;;15.25;9.25;;;15.20;99.90;;;;;;5058688;28;20035;-85
2021/09/14 04:42:24;;;;;;;12.98;9.80;;;15.20;99.90;;;;;;5077298;28;20031;-85
2021/09/14 04:44:50;;;;;;;12.32;8.88;;;15.20;99.90;;;;;;5076363;28;20051;-85
2021/09/14 04:47:16;;;;;;;12.75;8.25;;;15.20;99.90;;;;;;5076193;28;20446;-85
2021/09/14 04:49:41;;;;;;;14.25;10.20;;;15.30;99.90;;;;;;5057826;28;20036;-85
2021/09/14 04:52:07;;;;;;;15.38;10.05;;;15.20;99.90;;;;;;5058130;28;20028;-85
2021/09/14 04:54:37;;;;;;;15.70;9.07;;;15.20;99.90;;;;;;5075903;28;20028;-85
2021/09/14 04:57:04;;;;;;;13.13;9.20;;;15.30;99.90;;;;;;5058088;28;20024;-85
2021/09/14 04:59:30;;;;;;;17.75;9.98;;;15.30;99.90;;;;;;5076309;28;20033;-85
2021/09/14 05:01:57;;;;;;;15.90;10.20;;;15.30;99.90;;;;;;5057810;28;20560;-85
2021/09/14 05:04:23;;;;;;;17.70;10.20;;;15.30;99.90;;;;;;5057906;28;20488;-85
2021/09/14 05:06:49;;;;;;;15.77;10.02;;;15.20;99.90;;;;;;5058075;28;20040;-85
2021/09/14 05:09:15;;;;;;;17.35;11.18;;;15.20;99.90;;;;;;5074534;28;20031;-85
2021/09/14 05:11:41;;;;;;;17.65;10.98;;;15.10;99.90;;;;;;5059254;28;20020;-85
2021/09/14 05:14:06;;;;;;;15.82;9.60;;;15.10;99.90;;;;;;5080000;28;20028;-85
2021/09/14 05:16:32;;;;;;;16.67;9.70;;;15.10;99.90;;;;;;5062332;28;20036;-85
2021/09/14 05:18:58;;;;;;;14.60;9.10;;;15.10;99.90;;;;;;5062898;28;20051;-85
2021/09/14 05:21:24;;;;;;;12.88;8.88;;;15.10;99.90;;;;;;5060589;28;20132;-85
2021/09/14 05:23:50;;;;;;;16.40;9.55;;;15.20;99.90;;;;;;5059823;28;20039;-85
2021/09/14 05:26:16;;;;;;;16.88;10.05;;;15.20;99.90;;;;;;5076101;28;20036;-85
2021/09/14 05:28:43;;;;;;;16.83;10.00;;;15.20;99.90;;;;;;5077150;28;20112;-85
2021/09/14 05:31:10;;;;;;;14.10;9.63;;;15.20;99.90;;;;;;5058008;28;20036;-85
2021/09/14 05:33:38;;;;;;;13.65;9.55;;;15.20;99.90;;;;;;5058197;28;20551;-85
2021/09/14 05:36:06;;;;;;;13.88;9.82;;;15.20;99.90;;;;;;5058896;28;20028;-85
2021/09/14 05:38:31;;;;;;;16.88;10.50;;;15.20;99.90;;;;;;5060432;28;20123;-85
2021/09/14 05:40:58;;;;;;;17.95;9.73;;;15.20;99.90;;;;;;5075526;28;20052;-85
2021/09/14 05:43:25;;;;;;;14.80;10.45;;;15.20;99.90;;;;;;5076250;28;20020;-85
2021/09/14 05:45:52;;;;;;;20.13;10.77;;;15.20;99.90;;;;;;5056649;28;20093;-86
2021/09/14 05:48:17;;;;;;;16.45;10.98;;;15.10;99.90;;;;;;5073612;28;20020;-86
2021/09/14 05:50:43;;;;;;;18.23;11.07;;;15.10;99.90;;;;;;5055156;28;20032;-86
2021/09/14 05:53:09;;;;;;;18.38;10.55;;;15.10;99.90;;;;;;5072059;28;20025;-86
2021/09/14 05:55:38;;;;;;;15.68;10.27;;;15.10;99.90;;;;;;5056022;28;20023;-86
2021/09/14 05:58:05;;;;;;;14.73;10.32;;;15.10;99.90;;;;;;5055573;28;20024;-86
2021/09/14 06:00:32;;;;;;;16.92;10.07;;;15.20;99.90;;;;;;5054940;28;20368;-86
2021/09/14 06:02:58;;;;;;;15.10;10.25;;;15.20;99.90;;;;;;5071998;28;20107;-86
2021/09/14 06:05:23;;;;;;;18.88;11.05;;;15.30;99.90;;;;;;5072943;28;20048;-86
2021/09/14 06:07:49;;;;;;;18.75;11.35;;;15.20;99.90;;;;;;5055418;28;20074;-86
2021/09/14 06:10:15;;;;;;;20.38;10.90;;;15.20;99.90;;;;;;5054728;28;20028;-86
2021/09/14 06:12:41;;;;;;;17.85;11.27;;;15.30;99.90;;;;;;5055178;28;20473;-86
2021/09/14 06:15:07;;;;;;;17.38;10.48;;;15.30;99.90;;;;;;5071518;28;20027;-86
2021/09/14 06:17:33;;;;;;;15.68;10.35;;;15.30;99.90;;;;;;5054846;28;20025;-86
2021/09/14 06:19:58;;;;;;;15.55;10.35;;;15.40;99.90;;;;;;5054111;28;20031;-86
2021/09/14 06:22:24;;;;;;;14.65;10.02;;;15.40;99.90;;;;;;5055102;28;20115;-86
2021/09/14 06:24:50;;;;;;;17.67;11.40;;;15.50;99.90;;;;;;5054907;28;20025;-86
2021/09/14 06:27:16;;;;;;;16.45;9.60;;;15.50;99.90;;;;;;5072693;28;20104;-86
2021/09/14 06:29:42;;;;;;;17.38;10.65;;;15.50;99.90;;;;;;5054248;28;20366;-86
2021/09/14 06:32:08;;;;;;;13.30;9.60;;;15.50;99.90;;;;;;5054826;28;20389;-86
2021/09/14 06:34:37;;;;;;;14.98;10.40;;;15.60;99.90;;;;;;5054585;28;20611;-86
2021/09/14 06:37:04;;;;;;;;;;;15.60;99.90;;;;;;5072996;28;20086;-86
2021/09/14 06:39:29;;;;;;;13.45;10.10;;;15.70;99.90;;;;;;5071892;28;19908;-86
2021/09/14 06:41:56;;;;;;;16.15;10.52;;;15.70;99.90;;;;;;5054583;28;20388;-86
2021/09/14 06:44:22;;;;;;;15.85;10.45;;;15.80;99.90;;;;;;5072217;28;20036;-86
2021/09/14 06:46:47;;;;;;;14.90;10.65;;;15.80;99.90;;;;;;5072331;28;20030;-86
2021/09/14 06:49:13;;;;;;;14.43;11.10;;;15.90;99.90;;;;;;5053895;28;20128;-85
2021/09/14 06:51:39;;;;;;;20.98;11.18;;;16.00;99.90;;;;;;5054364;28;20021;-86
2021/09/14 06:54:04;;;;;;;17.38;10.75;;;16.00;99.90;;;;;;5054352;28;20477;-86
2021/09/14 06:56:30;;;;;;;15.25;10.07;;;16.10;99.90;;;;;;5072277;28;20035;-86
2021/09/14 06:58:56;;;;;;;14.48;10.32;;;16.20;99.90;;;;;;5053682;28;20122;-86
2021/09/14 07:01:22;;;;;;;16.67;11.02;;;16.20;99.90;;;;;;5070234;28;20070;-86
2021/09/14 07:03:48;;;;;;;15.80;10.80;;;16.30;99.90;;;;;;5053897;28;20086;-86
2021/09/14 07:06:15;;;;;;;14.38;10.13;;;16.30;99.90;;;;;;5072189;28;20025;-86
2021/09/14 07:08:41;;;;;;;17.67;10.73;;;16.40;99.90;;;;;;5072107;28;20052;-86
2021/09/14 07:11:06;;;;;;;14.45;10.23;;;16.40;99.90;;;;;;5071536;28;20416;-86
2021/09/14 07:13:32;;;;;;;15.30;10.85;;;16.50;99.90;;;;;;5054092;28;20027;-86
2021/09/14 07:15:58;;;;;;;15.40;10.27;;;16.50;99.90;;;;;;5054006;28;20031;-86
2021/09/14 07:18:24;;;;;;;16.48;9.70;;;16.50;99.90;;;;;;5054003;28;20185;-86
2021/09/14 07:20:50;;;;;;;17.10;10.75;;;16.60;99.90;;;;;;5071356;28;20036;-86
2021/09/14 07:23:16;;;;;;;13.98;10.38;;;16.60;99.90;;;;;;5071869;28;20385;-86
2021/09/14 07:25:42;;;;;;;16.02;10.07;;;16.60;99.90;;;;;;5072238;28;20032;-86
2021/09/14 07:28:09;;;;;;;16.55;10.77;;;16.70;99.90;;;;;;5053992;28;20032;-86
2021/09/14 07:30:36;;;;;;;21.73;11.00;;;16.70;99.90;;;;;;5053159;28;20031;-86
2021/09/14 07:33:02;;;;;;;17.58;11.57;;;16.80;99.90;;;;;;5053058;28;20101;-86
2021/09/14 07:35:30;;;;;;;17.05;11.00;;;16.80;99.90;;;;;;5053774;28;20481;-86
2021/09/14 07:37:59;;;;;;;15.93;10.55;;;16.80;99.90;;;;;;5070456;28;20024;-86
2021/09/14 07:40:25;;;;;;;18.55;10.70;;;16.80;99.90;;;;;;5053228;28;20033;-86
2021/09/14 07:42:52;;;;;;;15.73;10.70;;;16.90;99.90;;;;;;5053651;28;20029;-86
2021/09/14 07:45:18;;;;;;;17.35;9.68;;;16.90;99.90;;;;;;5053799;28;20036;-86
2021/09/14 07:47:43;;;;;;;14.82;9.80;;;16.90;99.90;;;;;;5071745;28;20550;-86
2021/09/14 07:50:09;;;;;;;15.27;9.50;;;17.00;99.90;;;;;;5053203;28;20076;-86
2021/09/14 07:52:35;;;;;;;12.10;8.48;;;17.00;99.90;;;;;;5053550;28;20025;-86
2021/09/14 07:55:01;;;;;;;12.07;8.57;;;17.00;99.90;;;;;;5053631;28;20032;-86
2021/09/14 07:57:28;;;;;;;13.38;9.05;;;17.10;99.90;;;;;;5071580;28;20035;-86
2021/09/14 07:59:54;;;;;;;10.25;8.00;;;17.10;99.90;;;;;;5071331;28;20062;-86
2021/09/14 08:02:19;;;;;;;13.15;8.60;;;17.10;99.90;;;;;;5053496;28;20028;-85
2021/09/14 08:04:45;;;;;;;12.90;10.00;;;17.20;99.90;;;;;;5053619;28;20036;-86
2021/09/14 08:07:10;;;;;;;13.70;9.90;;;17.20;99.90;;;;;;5053529;28;20084;-86
2021/09/14 08:09:36;;;;;;;12.55;8.73;;;17.20;99.90;;;;;;5053028;28;20031;-86
2021/09/14 08:12:02;;;;;;;13.15;8.68;;;17.20;99.90;;;;;;5053366;28;20025;-86
2021/09/14 08:14:27;;;;;;;13.75;8.93;;;17.30;99.90;;;;;;5053623;28;20025;-86
2021/09/14 08:16:53;;;;;;;12.73;7.82;;;17.30;99.90;;;;;;5053627;28;20036;-86
2021/09/14 08:19:19;;;;;;;11.80;7.80;;;17.30;99.90;;;;;;5053151;28;20683;-86
2021/09/14 08:21:44;;;;;;;10.68;7.80;;;17.30;99.90;;;;;;5071488;28;20484;-86
2021/09/14 08:24:11;;;;;;;9.43;7.38;;;17.30;99.90;;;;;;5054324;28;20060;-86
2021/09/14 08:26:38;;;;;;;12.18;7.70;;;17.40;99.90;;;;;;5055213;28;20025;-86
2021/09/14 08:29:04;;;;;;;10.88;7.63;;;17.40;99.90;;;;;;5072172;28;20484;-86
2021/09/14 08:31:31;;;;;;;10.52;7.60;;;17.40;99.90;;;;;;5054862;28;20029;-86
2021/09/14 08:33:58;;;;;;;12.13;8.88;;;17.40;99.90;;;;;;5072388;28;20454;-86
2021/09/14 08:36:24;;;;;;;11.75;7.82;;;17.40;99.90;;;;;;5054031;28;20028;-86
2021/09/14 08:38:50;;;;;;;9.93;7.22;;;17.40;99.90;;;;;;5071009;28;20392;-86
2021/09/14 08:41:16;;;;;;;11.70;7.50;;;17.50;99.90;;;;;;5071038;28;20059;-86
2021/09/14 08:43:48;;;;;;;9.10;7.25;;;17.50;99.90;;;;;;5071393;28;20477;-86
2021/09/14 08:46:16;;;;;;;10.20;7.22;;;17.50;99.90;;;;;;5074596;28;20423;-86
2021/09/14 08:48:43;;;;;;;12.07;6.90;;;17.50;99.90;;;;;;5056689;28;20024;-86
2021/09/14 08:51:09;;;;;;;10.25;6.97;;;17.50;99.90;;;;;;5056212;28;20435;-86
2021/09/14 08:53:35;;;;;;;9.73;6.50;;;17.60;99.90;;;;;;5056674;28;20025;-86
2021/09/14 08:56:06;;;;;;;11.38;7.22;;;17.60;99.90;;;;;;5056698;28;20385;-86
2021/09/14 08:58:32;;;;;;;9.40;6.32;;;17.70;99.90;;;;;;5074435;28;20025;-86
2021/09/14 09:00:57;;;;;;;8.85;6.70;;;17.70;99.90;;;;;;5055981;28;20027;-86
2021/09/14 09:03:30;;;;;;;7.75;5.70;;;17.70;99.90;;;;;;5074322;28;20104;-86
2021/09/14 09:05:59;;;;;;;10.75;6.40;;;17.70;99.90;;;;;;5056397;28;20031;-86
2021/09/14 09:08:25;;;;;;;;;;;17.70;99.90;;;;;;5056818;28;20031;-86
2021/09/14 09:10:59;;;;;;;9.82;6.45;;;17.70;99.90;;;;;;5055914;28;20286;-86
2021/09/14 09:13:26;;;;;;;10.15;7.07;;;17.70;99.90;;;;;;5056054;28;20021;-86
2021/09/14 09:15:52;;;;;;;9.77;6.53;;;17.70;99.90;;;;;;5056136;28;20033;-86
2021/09/14 09:18:17;;;;;;;12.63;6.68;;;17.80;99.90;;;;;;5056127;28;20427;-86
2021/09/14 09:20:43;;;;;;;9.48;6.63;;;17.80;99.90;;;;;;5055490;28;20031;-86
2021/09/14 09:23:25;;;;;;;9.38;6.03;;;17.90;99.90;;;;;;5056176;28;20024;-86
2021/09/14 09:26:02;;;;;;;7.35;4.95;;;17.90;99.90;;;;;;5055983;28;20067;-86
2021/09/14 09:28:28;;;;;;;7.63;5.50;;;18.00;99.90;;;;;;5056108;28;20016;-86
2021/09/14 09:30:58;;;;;;;8.13;5.53;;;18.10;99.90;;;;;;5072949;28;20081;-86
2021/09/14 09:33:25;;;;;;;10.25;6.00;;;18.10;99.90;;;;;;5055771;28;20024;-86
2021/09/14 09:35:50;;;;;;;8.10;5.30;;;18.20;99.90;;;;;;5055945;28;20423;-86
2021/09/14 09:38:16;;;;;;;7.00;4.95;;;18.20;99.90;;;;;;5055912;28;20028;-86
2021/09/14 09:40:43;;;;;;;7.70;5.57;;;18.30;99.90;;;;;;5073164;28;20047;-86
2021/09/14 09:43:10;;;;;;;8.57;5.88;;;18.30;99.90;;;;;;5055691;28;20024;-86
2021/09/14 09:45:44;;;;;;;8.18;6.05;;;18.30;99.90;;;;;;5055405;28;20028;-86
2021/09/14 09:48:11;;;;;;;6.57;5.20;;;18.20;99.90;;;;;;5055638;28;20559;-86
2021/09/14 09:50:38;;;;;;;10.68;6.18;;;18.20;99.90;;;;;;5054990;28;20432;-86
2021/09/14 09:53:05;;;;;;;8.00;6.25;;;18.30;99.90;;;;;;5055374;28;20024;-86
2021/09/14 09:55:32;;;;;;;8.50;6.03;;;18.40;99.90;;;;;;5072728;28;20028;-86
2021/09/14 09:57:59;;;;;;;8.80;6.25;;;18.50;99.90;;;;;;5055137;28;20031;-86
2021/09/14 10:00:25;;;;;;;9.05;5.88;;;18.50;99.90;;;;;;5054631;28;20481;-86
2021/09/14 10:03:01;;;;;;;8.23;5.80;;;18.60;99.90;;;;;;5055246;28;20028;-86
2021/09/14 10:05:32;;;;;;;15.70;6.75;;;18.60;99.90;;;;;;5055183;28;20044;-86
2021/09/14 10:08:11;;;;;;;8.25;5.53;;;18.60;99.90;;;;;;5055373;28;20048;-86
2021/09/14 10:10:39;;;;;;;8.25;5.63;;;18.60;99.90;;;;;;5054947;28;20020;-86
2021/09/14 10:13:06;;;;;;;7.93;5.37;;;18.70;99.90;;;;;;5055274;28;20548;-86
2021/09/14 10:15:44;;;;;;;7.00;5.53;;;18.80;99.90;;;;;;5054893;28;20266;-86
2021/09/14 10:18:12;;;;;;;9.43;5.85;;;18.70;99.90;;;;;;5054976;28;20397;-86
2021/09/14 10:20:43;;;;;;;6.85;4.90;;;18.80;99.90;;;;;;5054410;28;20115;-86
2021/09/14 10:23:30;;;;;;;7.03;4.97;;;18.90;99.90;;;;;;5054773;28;20020;-86
2021/09/14 10:26:03;;;;;;;7.38;5.25;;;18.90;99.90;;;;;;5054840;28;20114;-86
2021/09/14 10:28:47;;;;;;;7.18;4.85;;;19.00;99.90;;;;;;5054815;28;20024;-86
2021/09/14 10:31:26;;;;;;;7.13;4.80;;;18.90;99.90;;;;;;5054446;28;20016;-86
2021/09/14 10:34:06;;;;;;;6.38;4.63;;;18.90;99.90;;;;;;5054735;28;20021;-86
2021/09/14 10:36:34;;;;;;;8.60;5.40;;;18.90;99.90;;;;;;5054824;28;20033;-86
2021/09/14 10:39:00;;;;;;;8.52;5.18;;;19.00;99.90;;;;;;5072155;28;20099;-86
2021/09/14 10:41:40;;;;;;;9.30;5.43;;;19.00;99.90;;;;;;5054551;28;20036;-86
2021/09/14 10:44:09;;;;;;;6.43;5.00;;;19.10;99.90;;;;;;5054364;28;20112;-86
2021/09/14 10:46:40;;;;;;;;;;;19.10;99.90;;;;;;5054921;28;20048;-86
2021/09/14 10:49:15;;;;;;;6.57;4.95;;;19.00;99.90;;;;;;5053884;28;19953;-86
2021/09/14 10:51:52;;;;;;;6.82;4.88;;;19.00;99.90;;;;;;5054382;28;20054;-86
2021/09/14 10:54:20;;;;;;;7.90;5.03;;;19.00;99.90;;;;;;5054454;28;20123;-86
2021/09/14 10:56:48;;;;;;;7.93;5.25;;;19.10;99.90;;;;;;5072217;28;20489;-86
2021/09/14 10:59:18;;;;;;;7.00;4.68;;;19.20;99.90;;;;;;5053853;28;20115;-86
2021/09/14 11:01:46;;;;;;;8.45;4.75;;;19.30;99.90;;;;;;5054441;28;20036;-86
2021/09/14 11:04:12;;;;;;;8.30;5.68;;;19.30;99.90;;;;;;5054161;28;20028;-86
2021/09/14 11:06:38;;;;;;;6.15;4.82;;;19.40;99.90;;;;;;5053386;28;20077;-86
2021/09/14 11:09:06;;;;;;;6.10;4.63;;;19.50;99.90;;;;;;5053615;28;20477;-86
2021/09/14 11:11:33;;;;;;;6.38;4.80;;;19.50;99.90;;;;;;5054002;28;20031;-86
2021/09/14 11:13:59;;;;;;;7.18;4.78;;;19.40;99.90;;;;;;5054167;28;20119;-86
2021/09/14 11:16:25;;;;;;;7.10;5.10;;;19.30;99.90;;;;;;5054235;28;20028;-86
2021/09/14 11:18:51;;;;;;;8.00;5.30;;;19.40;99.90;;;;;;5053763;28;20031;-86
2021/09/14 11:21:18;;;;;;;7.43;5.20;;;19.40;99.90;;;;;;5071801;28;20032;-86
2021/09/14 11:23:47;;;;;;;8.20;5.03;;;19.50;99.90;;;;;;5053748;28;20404;-86
2021/09/14 11:26:16;;;;;;;6.80;4.97;;;19.40;99.90;;;;;;5072086;28;20024;-86
2021/09/14 11:28:55;;;;;;;8.20;5.07;;;19.40;99.90;;;;;;5053965;28;20123;-86
2021/09/14 11:31:21;;;;;;;9.00;4.47;;;19.40;99.90;;;;;;5071831;28;20032;-86
2021/09/14 11:33:48;;;;;;;8.13;4.90;;;19.30;99.90;;;;;;5053811;28;20028;-86
2021/09/14 11:36:14;;;;;;;9.15;5.35;;;19.30;99.90;;;;;;5053789;28;20107;-86
2021/09/14 11:38:40;;;;;;;6.70;4.80;;;19.30;99.90;;;;;;5053881;28;20460;-86
2021/09/14 11:41:12;;;;;;;9.18;5.15;;;19.30;99.90;;;;;;5053249;28;20492;-86
2021/09/14 11:46:23;;;;;;;7.50;4.97;;;19.50;99.90;;;;;;5100199;22;20053;-85
2021/09/14 11:49:03;;;;;;;8.93;4.80;;;19.70;99.90;;;;;;5057006;28;20032;-85
2021/09/14 11:51:37;;;;;;;8.23;4.90;;;19.80;99.90;;;;;;5053846;28;20116;-86
2021/09/14 11:54:02;;;;;;;7.85;5.00;;;19.80;99.90;;;;;;5053748;28;20070;-85
2021/09/14 11:56:28;;;;;;;7.82;5.32;;;19.80;99.90;;;;;;5053851;28;20480;-85
2021/09/14 11:58:54;;;;;;;7.13;5.13;;;19.80;99.90;;;;;;5071565;28;20083;-85
2021/09/14 12:01:28;;;;;;;8.25;5.50;;;19.70;99.90;;;;;;5071741;28;20099;-87
2021/09/14 12:03:57;;;;;;;7.63;5.38;;;19.80;99.90;;;;;;5071547;28;20039;-85
2021/09/14 12:06:22;;;;;;;7.30;4.90;;;19.90;99.90;;;;;;5053853;28;20339;-85
2021/09/14 12:08:48;;;;;;;7.10;5.10;;;19.80;99.90;;;;;;5053476;28;20374;-85
2021/09/14 12:11:23;;;;;;;7.22;4.75;;;19.80;99.90;;;;;;5053580;28;20027;-85
2021/09/14 12:13:54;;;;;;;6.47;4.63;;;19.90;99.90;;;;;;5053649;28;20021;-85
2021/09/14 12:16:29;;;;;;;6.30;4.82;;;19.90;99.90;;;;;;5053509;28;20507;-85
2021/09/14 12:18:55;;;;;;;6.97;4.70;;;20.10;99.90;;;;;;5055562;28;20106;-85
2021/09/14 12:21:21;;;;;;;6.07;4.80;;;20.10;99.90;;;;;;5073799;28;20042;-85
2021/09/14 12:23:48;;;;;;;6.13;4.68;;;20.10;99.90;;;;;;5057118;28;20028;-85
2021/09/14 12:26:22;;;;;;;8.63;4.93;;;20.10;99.90;;;;;;5056976;28;20389;-87
2021/09/14 12:28:49;;;;;;;6.80;5.20;;;20.10;99.90;;;;;;5057012;28;20024;-86
2021/09/14 12:31:16;;;;;;;6.78;4.90;;;20.20;99.90;;;;;;5056687;28;20024;-85
2021/09/14 12:33:41;;;;;;;6.93;4.80;;;20.20;99.90;;;;;;5074903;28;20017;-85
2021/09/14 12:36:08;;;;;;;5.80;4.18;;;20.10;99.90;;;;;;5057005;28;20028;-85
2021/09/14 12:38:34;;;;;;;7.18;4.47;;;20.00;99.90;;;;;;5074758;28;20051;-85
2021/09/14 12:40:59;;;;;;;5.60;4.35;;;20.00;99.90;;;;;;5056658;28;20025;-85
2021/09/14 12:43:25;;;;;;;10.07;5.20;;;19.80;99.90;;;;;;5074711;28;20031;-85
2021/09/14 12:45:51;;;;;;;7.35;4.63;;;20.00;99.90;;;;;;5056684;28;20111;-85
2021/09/14 12:48:16;;;;;;;7.75;4.53;;;20.10;99.90;;;;;;5056776;28;20020;-85
2021/09/14 12:50:42;;;;;;;6.97;4.82;;;20.30;99.90;;;;;;5056341;28;20048;-85
2021/09/14 12:53:08;;;;;;;6.00;4.72;;;20.40;99.90;;;;;;5074635;28;20032;-85
2021/09/14 12:55:38;;;;;;;4.50;4.07;;;20.40;99.90;;;;;;5056513;28;20393;-85
2021/09/14 12:58:05;;;;;;;5.63;4.10;;;20.30;99.90;;;;;;5074472;28;20025;-87
2021/09/14 13:00:32;;;;;;;6.50;4.18;;;20.20;99.90;;;;;;5056167;28;20043;-87
2021/09/14 13:02:58;;;;;;;6.60;4.10;;;20.10;99.90;;;;;;5074376;28;20025;-87
2021/09/14 13:05:29;;;;;;;5.75;4.13;;;20.10;99.90;;;;;;5056639;28;20025;-87
2021/09/14 13:07:56;;;;;;;6.57;4.43;;;20.00;99.90;;;;;;5074270;28;20038;-87
2021/09/14 13:10:22;;;;;;;6.63;4.47;;;20.00;99.90;;;;;;5055931;28;20016;-87
2021/09/14 13:12:50;;;;;;;5.50;3.90;;;20.00;99.90;;;;;;5056265;28;20021;-87
2021/09/14 13:18:01;;;;;;;8.43;4.90;;;20.00;99.90;;;;;;5074277;28;20054;-87
2021/09/14 13:20:28;;;;;;;5.57;4.55;;;20.00;99.90;;;;;;5073931;28;20477;-87
2021/09/14 13:22:54;;;;;;;6.93;4.53;;;20.00;99.90;;;;;;5074083;28;20028;-87
2021/09/14 13:25:22;;;;;;;6.22;4.60;;;20.00;99.90;;;;;;5074419;28;20389;-87
2021/09/14 13:27:47;;;;;;;6.20;4.50;;;20.00;99.90;;;;;;5056034;28;20028;-87
2021/09/14 13:30:13;;;;;;;6.07;4.53;;;20.00;99.90;;;;;;5072730;28;20027;-88
2021/09/14 13:32:39;;;;;;;5.95;4.40;;;20.00;99.90;;;;;;5055861;28;20467;-87
2021/09/14 13:35:05;;;;;;;5.90;4.18;;;20.00;99.90;;;;;;5055856;28;20120;-87
2021/09/14 13:37:32;;;;;;;5.57;4.20;;;20.00;99.90;;;;;;5055828;28;20071;-87
2021/09/14 13:39:58;;;;;;;5.85;4.38;;;20.10;99.90;;;;;;5073443;28;20484;-87
2021/09/14 13:42:25;;;;;;;5.43;4.05;;;20.20;99.90;;;;;;5073615;28;20027;-87